sensor_id;sensor_type;location;lat;lon;timestamp;temperature;humidity
2767;DHT22;1391;46.742;11.636;2022-07-29T00:00:49;16.40;99.90
2767;DHT22;1391;46.742;11.636;2022-07-29T00:03:16;16.80;99.90
2767;DHT22;1391;46.742;11.636;2022-07-29T00:05:45;16.80;99.90
2767;DHT22;1391;46.742;11.636;2022-07-29T00:08:12;16.80;99.90
2767;DHT22;1391;46.742;11.636;2022-07-29T00:10:41;16.40;99.90
2767;DHT22;1391;46.742;11.636;2022-07-29T00:13:08;16.80;99.90
2767;DHT22;1391;46.742;11.636;2022-07-29T00:15:35;16.50;99.90
2767;DHT22;1391;46.742;11.636;2022-07-29T00:18:03;16.70;99.90
2767;DHT22;1391;46.742;11.636;2022-07-29T00:20:30;16.50;99.90
2767;DHT22;1391;46.742;11.636;2022-07-29T00:22:59;16.60;99.90
2767;DHT22;1391;46.742;11.636;2022-07-29T00:25:26;16.10;99.90
2767;DHT22;1391;46.742;11.636;2022-07-29T00:27:53;16.70;99.90
2767;DHT22;1391;46.742;11.636;2022-07-29T00:30:21;16.70;99.90
2767;DHT22;1391;46.742;11.636;2022-07-29T00:32:48;16.30;99.90
2767;DHT22;1391;46.742;11.636;2022-07-29T00:35:15;16.80;99.90
2767;DHT22;1391;46.742;11.636;2022-07-29T00:38:13;16.40;99.90
2767;DHT22;1391;46.742;11.636;2022-07-29T00:40:42;16.40;99.90
2767;DHT22;1391;46.742;11.636;2022-07-29T00:43:11;16.90;99.90
2767;DHT22;1391;46.742;11.636;2022-07-29T00:45:39;16.70;99.90
2767;DHT22;1391;46.742;11.636;2022-07-29T00:48:07;16.80;99.90
2767;DHT22;1391;46.742;11.636;2022-07-29T00:50:35;16.40;99.90
2767;DHT22;1391;46.742;11.636;2022-07-29T00:53:04;16.40;99.90
2767;DHT22;1391;46.742;11.636;2022-07-29T00:55:34;16.40;99.90
2767;DHT22;1391;46.742;11.636;2022-07-29T00:58:02;16.40;99.90
2767;DHT22;1391;46.742;11.636;2022-07-29T01:00:30;16.40;99.90
2767;DHT22;1391;46.742;11.636;2022-07-29T01:02:58;16.30;99.90
2767;DHT22;1391;46.742;11.636;2022-07-29T01:05:26;16.20;99.90
2767;DHT22;1391;46.742;11.636;2022-07-29T01:07:55;16.10;99.90
2767;DHT22;1391;46.742;11.636;2022-07-29T01:10:23;16.30;99.90
2767;DHT22;1391;46.742;11.636;2022-07-29T01:12:54;16.30;99.90
2767;DHT22;1391;46.742;11.636;2022-07-29T01:15:24;16.30;99.90
2767;DHT22;1391;46.742;11.636;2022-07-29T01:17:56;16.30;99.90
2767;DHT22;1391;46.742;11.636;2022-07-29T01:20:36;16.30;99.90
2767;DHT22;1391;46.742;11.636;2022-07-29T01:26:31;16.30;99.90
2767;DHT22;1391;46.742;11.636;2022-07-29T01:29:10;16.30;99.90
2767;DHT22;1391;46.742;11.636;2022-07-29T01:31:45;16.40;99.90
2767;DHT22;1391;46.742;11.636;2022-07-29T01:34:19;16.30;99.90
2767;DHT22;1391;46.742;11.636;2022-07-29T01:36:51;16.30;99.90
2767;DHT22;1391;46.742;11.636;2022-07-29T01:39:27;16.30;99.90
2767;DHT22;1391;46.742;11.636;2022-07-29T01:42:01;16.30;99.90
2767;DHT22;1391;46.742;11.636;2022-07-29T01:44:37;15.90;99.90
2767;DHT22;1391;46.742;11.636;2022-07-29T01:47:12;15.80;99.90
2767;DHT22;1391;46.742;11.636;2022-07-29T01:49:46;15.90;99.90
2767;DHT22;1391;46.742;11.636;2022-07-29T01:52:20;15.90;99.90
2767;DHT22;1391;46.742;11.636;2022-07-29T01:54:53;15.90;99.90
2767;DHT22;1391;46.742;11.636;2022-07-29T01:57:27;15.80;99.90
2767;DHT22;1391;46.742;11.636;2022-07-29T01:59:58;15.80;99.90
2767;DHT22;1391;46.742;11.636;2022-07-29T02:02:27;15.80;99.90
2767;DHT22;1391;46.742;11.636;2022-07-29T02:04:55;15.90;99.90
2767;DHT22;1391;46.742;11.636;2022-07-29T02:07:24;15.80;99.90
2767;DHT22;1391;46.742;11.636;2022-07-29T02:09:55;15.90;99.90
2767;DHT22;1391;46.742;11.636;2022-07-29T02:12:24;15.80;99.90
2767;DHT22;1391;46.742;11.636;2022-07-29T02:14:53;15.90;99.90
2767;DHT22;1391;46.742;11.636;2022-07-29T02:17:26;15.80;99.90
2767;DHT22;1391;46.742;11.636;2022-07-29T02:19:58;15.80;99.90
2767;DHT22;1391;46.742;11.636;2022-07-29T02:22:29;15.90;99.90
2767;DHT22;1391;46.742;11.636;2022-07-29T02:24:58;15.80;99.90
2767;DHT22;1391;46.742;11.636;2022-07-29T02:27:26;15.90;99.90
2767;DHT22;1391;46.742;11.636;2022-07-29T02:29:57;15.90;99.90
2767;DHT22;1391;46.742;11.636;2022-07-29T02:32:28;15.90;99.90
2767;DHT22;1391;46.742;11.636;2022-07-29T02:34:56;15.80;99.90
2767;DHT22;1391;46.742;11.636;2022-07-29T02:37:26;15.90;99.90
2767;DHT22;1391;46.742;11.636;2022-07-29T02:39:55;15.80;99.90
2767;DHT22;1391;46.742;11.636;2022-07-29T02:42:26;15.80;99.90
2767;DHT22;1391;46.742;11.636;2022-07-29T02:44:54;15.80;99.90
2767;DHT22;1391;46.742;11.636;2022-07-29T02:47:24;15.80;99.90
2767;DHT22;1391;46.742;11.636;2022-07-29T02:50:00;15.50;99.90
2767;DHT22;1391;46.742;11.636;2022-07-29T02:52:35;15.80;99.90
2767;DHT22;1391;46.742;11.636;2022-07-29T02:55:13;15.80;99.90
2767;DHT22;1391;46.742;11.636;2022-07-29T02:57:44;15.00;99.90
2767;DHT22;1391;46.742;11.636;2022-07-29T03:00:15;15.30;99.90
2767;DHT22;1391;46.742;11.636;2022-07-29T03:02:45;15.40;99.90
2767;DHT22;1391;46.742;11.636;2022-07-29T03:05:20;15.20;99.90
2767;DHT22;1391;46.742;11.636;2022-07-29T03:07:52;15.30;99.90
2767;DHT22;1391;46.742;11.636;2022-07-29T03:10:23;15.20;99.90
2767;DHT22;1391;46.742;11.636;2022-07-29T03:12:52;15.30;99.90
2767;DHT22;1391;46.742;11.636;2022-07-29T03:15:21;15.10;99.90
2767;DHT22;1391;46.742;11.636;2022-07-29T03:17:50;15.10;99.90
2767;DHT22;1391;46.742;11.636;2022-07-29T03:20:19;15.00;99.90
2767;DHT22;1391;46.742;11.636;2022-07-29T03:22:46;15.20;99.90
2767;DHT22;1391;46.742;11.636;2022-07-29T03:25:14;15.20;99.90
2767;DHT22;1391;46.742;11.636;2022-07-29T03:27:43;15.20;99.90
2767;DHT22;1391;46.742;11.636;2022-07-29T03:30:12;14.90;99.90
2767;DHT22;1391;46.742;11.636;2022-07-29T03:32:41;14.80;99.90
2767;DHT22;1391;46.742;11.636;2022-07-29T03:35:10;14.90;99.90
2767;DHT22;1391;46.742;11.636;2022-07-29T03:37:37;14.90;99.90
2767;DHT22;1391;46.742;11.636;2022-07-29T03:40:07;14.80;99.90
2767;DHT22;1391;46.742;11.636;2022-07-29T03:42:37;14.90;99.90
2767;DHT22;1391;46.742;11.636;2022-07-29T03:45:07;14.70;99.90
2767;DHT22;1391;46.742;11.636;2022-07-29T03:47:40;14.90;99.90
2767;DHT22;1391;46.742;11.636;2022-07-29T03:50:12;14.80;99.90
2767;DHT22;1391;46.742;11.636;2022-07-29T03:52:41;14.80;99.90
2767;DHT22;1391;46.742;11.636;2022-07-29T03:55:09;14.80;99.90
2767;DHT22;1391;46.742;11.636;2022-07-29T03:57:38;14.50;99.90
2767;DHT22;1391;46.742;11.636;2022-07-29T04:00:07;14.80;99.90
2767;DHT22;1391;46.742;11.636;2022-07-29T04:02:36;14.40;99.90
2767;DHT22;1391;46.742;11.636;2022-07-29T04:05:03;14.30;99.90
2767;DHT22;1391;46.742;11.636;2022-07-29T04:07:32;14.80;99.90
2767;DHT22;1391;46.742;11.636;2022-07-29T04:10:00;14.40;99.90
2767;DHT22;1391;46.742;11.636;2022-07-29T04:12:27;14.70;99.90
2767;DHT22;1391;46.742;11.636;2022-07-29T04:14:54;14.40;99.90
2767;DHT22;1391;46.742;11.636;2022-07-29T04:17:21;14.70;99.90
2767;DHT22;1391;46.742;11.636;2022-07-29T04:19:48;14.80;99.90
2767;DHT22;1391;46.742;11.636;2022-07-29T04:22:15;14.40;99.90
2767;DHT22;1391;46.742;11.636;2022-07-29T04:24:44;14.60;99.90
2767;DHT22;1391;46.742;11.636;2022-07-29T04:27:11;14.40;99.90
2767;DHT22;1391;46.742;11.636;2022-07-29T04:29:38;14.70;99.90
2767;DHT22;1391;46.742;11.636;2022-07-29T04:32:06;14.40;99.90
2767;DHT22;1391;46.742;11.636;2022-07-29T04:34:33;14.60;99.90
2767;DHT22;1391;46.742;11.636;2022-07-29T04:37:00;14.60;99.90
2767;DHT22;1391;46.742;11.636;2022-07-29T04:39:27;14.50;99.90
2767;DHT22;1391;46.742;11.636;2022-07-29T04:41:56;14.40;99.90
2767;DHT22;1391;46.742;11.636;2022-07-29T04:44:23;14.70;99.90
2767;DHT22;1391;46.742;11.636;2022-07-29T04:46:50;14.10;99.90
2767;DHT22;1391;46.742;11.636;2022-07-29T04:49:18;14.40;99.90
2767;DHT22;1391;46.742;11.636;2022-07-29T04:51:45;14.60;99.90
2767;DHT22;1391;46.742;11.636;2022-07-29T04:54:12;14.60;99.90
2767;DHT22;1391;46.742;11.636;2022-07-29T04:56:39;14.50;99.90
2767;DHT22;1391;46.742;11.636;2022-07-29T04:59:08;14.50;99.90
2767;DHT22;1391;46.742;11.636;2022-07-29T05:01:35;14.40;99.90
2767;DHT22;1391;46.742;11.636;2022-07-29T05:04:02;14.60;99.90
2767;DHT22;1391;46.742;11.636;2022-07-29T05:06:30;14.90;99.90
2767;DHT22;1391;46.742;11.636;2022-07-29T05:08:57;14.80;99.90
2767;DHT22;1391;46.742;11.636;2022-07-29T05:11:24;14.90;99.90
2767;DHT22;1391;46.742;11.636;2022-07-29T05:13:51;15.10;99.90
2767;DHT22;1391;46.742;11.636;2022-07-29T05:16:20;14.90;99.90
2767;DHT22;1391;46.742;11.636;2022-07-29T05:18:48;15.10;99.90
2767;DHT22;1391;46.742;11.636;2022-07-29T05:21:15;15.20;99.90
2767;DHT22;1391;46.742;11.636;2022-07-29T05:23:42;15.30;99.90
2767;DHT22;1391;46.742;11.636;2022-07-29T05:26:09;14.90;99.90
2767;DHT22;1391;46.742;11.636;2022-07-29T05:28:37;15.30;99.90
2767;DHT22;1391;46.742;11.636;2022-07-29T05:31:05;15.00;99.90
2767;DHT22;1391;46.742;11.636;2022-07-29T05:33:33;15.70;99.90
2767;DHT22;1391;46.742;11.636;2022-07-29T05:36:00;15.80;99.90
2767;DHT22;1391;46.742;11.636;2022-07-29T05:38:28;15.80;99.90
2767;DHT22;1391;46.742;11.636;2022-07-29T05:40:57;15.80;99.90
2767;DHT22;1391;46.742;11.636;2022-07-29T05:43:24;15.90;99.90
2767;DHT22;1391;46.742;11.636;2022-07-29T05:45:52;15.80;99.90
2767;DHT22;1391;46.742;11.636;2022-07-29T05:48:19;15.90;99.90
2767;DHT22;1391;46.742;11.636;2022-07-29T05:50:47;15.80;99.90
2767;DHT22;1391;46.742;11.636;2022-07-29T05:53:15;15.90;99.90
2767;DHT22;1391;46.742;11.636;2022-07-29T05:55:42;15.80;99.90
2767;DHT22;1391;46.742;11.636;2022-07-29T05:58:09;15.80;99.90
2767;DHT22;1391;46.742;11.636;2022-07-29T06:00:37;15.80;99.90
2767;DHT22;1391;46.742;11.636;2022-07-29T06:03:04;15.90;99.90
2767;DHT22;1391;46.742;11.636;2022-07-29T06:05:31;15.70;99.90
2767;DHT22;1391;46.742;11.636;2022-07-29T06:08:00;15.70;99.90
2767;DHT22;1391;46.742;11.636;2022-07-29T06:10:27;16.10;99.90
2767;DHT22;1391;46.742;11.636;2022-07-29T06:12:54;16.30;99.90
2767;DHT22;1391;46.742;11.636;2022-07-29T06:15:22;16.20;99.90
2767;DHT22;1391;46.742;11.636;2022-07-29T06:17:49;16.40;99.90
2767;DHT22;1391;46.742;11.636;2022-07-29T06:20:16;16.40;99.90
2767;DHT22;1391;46.742;11.636;2022-07-29T06:22:43;16.40;99.90
2767;DHT22;1391;46.742;11.636;2022-07-29T06:25:12;16.70;99.90
2767;DHT22;1391;46.742;11.636;2022-07-29T06:27:39;16.30;99.90
2767;DHT22;1391;46.742;11.636;2022-07-29T06:30:07;16.70;99.90
2767;DHT22;1391;46.742;11.636;2022-07-29T06:32:35;16.70;99.90
2767;DHT22;1391;46.742;11.636;2022-07-29T06:35:03;16.70;99.90
2767;DHT22;1391;46.742;11.636;2022-07-29T06:37:31;16.70;99.90
2767;DHT22;1391;46.742;11.636;2022-07-29T06:39:58;16.60;99.90
2767;DHT22;1391;46.742;11.636;2022-07-29T06:42:43;16.90;99.90
2767;DHT22;1391;46.742;11.636;2022-07-29T06:45:11;16.70;99.90
2767;DHT22;1391;46.742;11.636;2022-07-29T06:47:38;16.90;99.90
2767;DHT22;1391;46.742;11.636;2022-07-29T06:50:06;16.60;99.90
2767;DHT22;1391;46.742;11.636;2022-07-29T06:52:37;17.30;99.90
2767;DHT22;1391;46.742;11.636;2022-07-29T06:55:05;17.30;99.90
2767;DHT22;1391;46.742;11.636;2022-07-29T06:57:33;17.40;99.90
2767;DHT22;1391;46.742;11.636;2022-07-29T07:00:03;17.50;99.90
2767;DHT22;1391;46.742;11.636;2022-07-29T07:02:31;17.80;99.90
2767;DHT22;1391;46.742;11.636;2022-07-29T07:04:58;17.90;99.90
2767;DHT22;1391;46.742;11.636;2022-07-29T07:07:25;17.80;99.90
2767;DHT22;1391;46.742;11.636;2022-07-29T07:09:52;18.40;99.90
2767;DHT22;1391;46.742;11.636;2022-07-29T07:12:20;18.50;99.90
2767;DHT22;1391;46.742;11.636;2022-07-29T07:14:47;18.30;98.40
2767;DHT22;1391;46.742;11.636;2022-07-29T07:17:15;18.60;98.20
2767;DHT22;1391;46.742;11.636;2022-07-29T07:19:43;19.00;95.60
2767;DHT22;1391;46.742;11.636;2022-07-29T07:22:10;19.00;92.20
2767;DHT22;1391;46.742;11.636;2022-07-29T07:24:37;19.10;95.80
2767;DHT22;1391;46.742;11.636;2022-07-29T07:27:05;19.00;92.00
2767;DHT22;1391;46.742;11.636;2022-07-29T07:29:32;19.80;95.00
2767;DHT22;1391;46.742;11.636;2022-07-29T07:31:59;19.70;90.90
2767;DHT22;1391;46.742;11.636;2022-07-29T07:34:28;19.60;90.60
2767;DHT22;1391;46.742;11.636;2022-07-29T07:36:56;19.90;91.20
2767;DHT22;1391;46.742;11.636;2022-07-29T07:39:23;19.80;91.30
2767;DHT22;1391;46.742;11.636;2022-07-29T07:41:51;20.30;89.70
2767;DHT22;1391;46.742;11.636;2022-07-29T07:44:20;20.50;95.40
2767;DHT22;1391;46.742;11.636;2022-07-29T07:46:50;19.60;81.50
2767;DHT22;1391;46.742;11.636;2022-07-29T07:49:18;20.50;98.80
2767;DHT22;1391;46.742;11.636;2022-07-29T07:51:47;20.30;81.50
2767;DHT22;1391;46.742;11.636;2022-07-29T07:54:14;20.30;80.10
2767;DHT22;1391;46.742;11.636;2022-07-29T07:56:41;20.30;83.70
2767;DHT22;1391;46.742;11.636;2022-07-29T07:59:08;19.80;82.40
2767;DHT22;1391;46.742;11.636;2022-07-29T08:01:36;20.40;88.70
2767;DHT22;1391;46.742;11.636;2022-07-29T08:04:03;20.30;79.70
2767;DHT22;1391;46.742;11.636;2022-07-29T08:06:31;20.70;79.70
2767;DHT22;1391;46.742;11.636;2022-07-29T08:09:02;21.90;86.50
2767;DHT22;1391;46.742;11.636;2022-07-29T08:11:29;22.10;77.70
2767;DHT22;1391;46.742;11.636;2022-07-29T08:13:56;21.90;75.10
2767;DHT22;1391;46.742;11.636;2022-07-29T08:16:24;21.20;78.40
2767;DHT22;1391;46.742;11.636;2022-07-29T08:18:51;21.00;71.70
2767;DHT22;1391;46.742;11.636;2022-07-29T08:21:23;21.10;73.50
2767;DHT22;1391;46.742;11.636;2022-07-29T08:23:51;22.00;76.90
2767;DHT22;1391;46.742;11.636;2022-07-29T08:26:41;21.80;68.50
2767;DHT22;1391;46.742;11.636;2022-07-29T08:29:09;22.00;70.70
2767;DHT22;1391;46.742;11.636;2022-07-29T08:31:36;22.60;71.80
2767;DHT22;1391;46.742;11.636;2022-07-29T08:34:04;22.50;65.90
2767;DHT22;1391;46.742;11.636;2022-07-29T08:36:32;22.00;67.00
2767;DHT22;1391;46.742;11.636;2022-07-29T08:39:00;21.90;66.10
2767;DHT22;1391;46.742;11.636;2022-07-29T08:41:28;21.50;71.30
2767;DHT22;1391;46.742;11.636;2022-07-29T08:43:58;22.10;72.80
2767;DHT22;1391;46.742;11.636;2022-07-29T08:46:25;22.60;69.70
2767;DHT22;1391;46.742;11.636;2022-07-29T08:48:52;22.80;75.70
2767;DHT22;1391;46.742;11.636;2022-07-29T08:51:21;23.30;63.10
2767;DHT22;1391;46.742;11.636;2022-07-29T08:53:49;22.70;62.60
2767;DHT22;1391;46.742;11.636;2022-07-29T08:56:19;22.80;65.70
2767;DHT22;1391;46.742;11.636;2022-07-29T08:58:48;23.30;61.30
2767;DHT22;1391;46.742;11.636;2022-07-29T09:01:22;22.70;62.40
2767;DHT22;1391;46.742;11.636;2022-07-29T09:03:52;22.10;62.70
2767;DHT22;1391;46.742;11.636;2022-07-29T09:06:22;22.90;64.10
2767;DHT22;1391;46.742;11.636;2022-07-29T09:08:53;23.50;61.70
2767;DHT22;1391;46.742;11.636;2022-07-29T09:11:21;23.70;62.20
2767;DHT22;1391;46.742;11.636;2022-07-29T09:13:48;23.50;63.30
2767;DHT22;1391;46.742;11.636;2022-07-29T09:16:17;23.30;61.40
2767;DHT22;1391;46.742;11.636;2022-07-29T09:18:45;22.90;61.00
2767;DHT22;1391;46.742;11.636;2022-07-29T09:21:15;23.50;60.50
2767;DHT22;1391;46.742;11.636;2022-07-29T09:24:06;22.80;58.60
2767;DHT22;1391;46.742;11.636;2022-07-29T09:26:35;22.90;63.60
2767;DHT22;1391;46.742;11.636;2022-07-29T09:29:12;23.30;62.70
2767;DHT22;1391;46.742;11.636;2022-07-29T09:31:44;23.40;59.90
2767;DHT22;1391;46.742;11.636;2022-07-29T09:34:15;22.60;56.20
2767;DHT22;1391;46.742;11.636;2022-07-29T09:36:45;22.70;61.40
2767;DHT22;1391;46.742;11.636;2022-07-29T09:39:13;23.50;61.10
2767;DHT22;1391;46.742;11.636;2022-07-29T09:41:46;24.60;62.60
2767;DHT22;1391;46.742;11.636;2022-07-29T09:44:15;24.40;57.60
2767;DHT22;1391;46.742;11.636;2022-07-29T09:46:54;24.40;56.50
2767;DHT22;1391;46.742;11.636;2022-07-29T09:49:23;24.40;58.30
2767;DHT22;1391;46.742;11.636;2022-07-29T09:52:01;23.50;57.60
2767;DHT22;1391;46.742;11.636;2022-07-29T09:54:31;23.60;54.00
2767;DHT22;1391;46.742;11.636;2022-07-29T09:57:03;23.70;56.00
2767;DHT22;1391;46.742;11.636;2022-07-29T09:59:31;23.50;55.60
2767;DHT22;1391;46.742;11.636;2022-07-29T10:02:00;23.50;58.60
2767;DHT22;1391;46.742;11.636;2022-07-29T10:04:38;23.50;56.80
2767;DHT22;1391;46.742;11.636;2022-07-29T10:07:06;23.60;55.70
2767;DHT22;1391;46.742;11.636;2022-07-29T10:09:34;24.10;53.70
2767;DHT22;1391;46.742;11.636;2022-07-29T10:12:09;24.30;51.10
2767;DHT22;1391;46.742;11.636;2022-07-29T10:14:39;24.30;51.80
2767;DHT22;1391;46.742;11.636;2022-07-29T10:17:10;24.50;59.50
2767;DHT22;1391;46.742;11.636;2022-07-29T10:19:38;24.40;48.40
2767;DHT22;1391;46.742;11.636;2022-07-29T10:22:07;24.40;47.40
2767;DHT22;1391;46.742;11.636;2022-07-29T10:24:37;25.20;46.80
2767;DHT22;1391;46.742;11.636;2022-07-29T10:27:06;24.60;49.60
2767;DHT22;1391;46.742;11.636;2022-07-29T10:29:34;25.60;56.00
2767;DHT22;1391;46.742;11.636;2022-07-29T10:32:22;26.40;38.10
2767;DHT22;1391;46.742;11.636;2022-07-29T10:35:09;26.40;37.20
2767;DHT22;1391;46.742;11.636;2022-07-29T10:38:10;26.10;41.30
2767;DHT22;1391;46.742;11.636;2022-07-29T10:40:54;26.40;40.60
2767;DHT22;1391;46.742;11.636;2022-07-29T10:44:00;26.30;43.50
2767;DHT22;1391;46.742;11.636;2022-07-29T10:46:28;26.30;38.70
2767;DHT22;1391;46.742;11.636;2022-07-29T10:49:06;26.20;42.10
2767;DHT22;1391;46.742;11.636;2022-07-29T10:52:00;26.30;37.50
2767;DHT22;1391;46.742;11.636;2022-07-29T10:54:45;25.40;40.10
2767;DHT22;1391;46.742;11.636;2022-07-29T10:57:23;25.70;39.20
2767;DHT22;1391;46.742;11.636;2022-07-29T11:00:31;25.60;42.60
2767;DHT22;1391;46.742;11.636;2022-07-29T11:02:59;26.40;39.00
2767;DHT22;1391;46.742;11.636;2022-07-29T11:05:28;26.20;41.30
2767;DHT22;1391;46.742;11.636;2022-07-29T11:08:17;26.20;43.40
2767;DHT22;1391;46.742;11.636;2022-07-29T11:10:47;26.40;41.60
2767;DHT22;1391;46.742;11.636;2022-07-29T11:13:47;27.20;39.90
2767;DHT22;1391;46.742;11.636;2022-07-29T11:16:18;27.60;42.90
2767;DHT22;1391;46.742;11.636;2022-07-29T11:19:19;27.40;36.20
2767;DHT22;1391;46.742;11.636;2022-07-29T11:21:49;27.40;34.80
2767;DHT22;1391;46.742;11.636;2022-07-29T11:24:19;27.30;38.80
2767;DHT22;1391;46.742;11.636;2022-07-29T11:27:15;27.50;37.60
2767;DHT22;1391;46.742;11.636;2022-07-29T11:29:54;28.20;34.50
2767;DHT22;1391;46.742;11.636;2022-07-29T11:32:24;27.90;35.50
2767;DHT22;1391;46.742;11.636;2022-07-29T11:35:14;27.20;39.00
2767;DHT22;1391;46.742;11.636;2022-07-29T11:37:46;27.50;37.60
2767;DHT22;1391;46.742;11.636;2022-07-29T11:40:16;27.40;35.20
2767;DHT22;1391;46.742;11.636;2022-07-29T11:42:48;27.30;43.60
2767;DHT22;1391;46.742;11.636;2022-07-29T11:45:21;27.40;36.80
2767;DHT22;1391;46.742;11.636;2022-07-29T11:47:55;27.30;38.70
2767;DHT22;1391;46.742;11.636;2022-07-29T11:50:33;28.30;33.20
2767;DHT22;1391;46.742;11.636;2022-07-29T11:53:10;27.70;35.70
2767;DHT22;1391;46.742;11.636;2022-07-29T11:55:40;27.90;33.20
2767;DHT22;1391;46.742;11.636;2022-07-29T11:58:07;27.50;34.60
2767;DHT22;1391;46.742;11.636;2022-07-29T12:00:37;28.50;35.50
2767;DHT22;1391;46.742;11.636;2022-07-29T12:03:09;28.10;33.30
2767;DHT22;1391;46.742;11.636;2022-07-29T12:05:39;28.00;33.60
2767;DHT22;1391;46.742;11.636;2022-07-29T12:08:12;27.30;31.80
2767;DHT22;1391;46.742;11.636;2022-07-29T12:10:42;27.40;33.20
2767;DHT22;1391;46.742;11.636;2022-07-29T12:13:11;27.30;34.80
2767;DHT22;1391;46.742;11.636;2022-07-29T12:15:40;27.30;34.00
2767;DHT22;1391;46.742;11.636;2022-07-29T12:18:11;27.10;34.00
2767;DHT22;1391;46.742;11.636;2022-07-29T12:20:43;27.00;32.70
2767;DHT22;1391;46.742;11.636;2022-07-29T12:23:19;26.40;33.80
2767;DHT22;1391;46.742;11.636;2022-07-29T12:25:57;26.90;33.20
2767;DHT22;1391;46.742;11.636;2022-07-29T12:28:28;26.90;37.50
2767;DHT22;1391;46.742;11.636;2022-07-29T12:31:13;27.10;36.30
2767;DHT22;1391;46.742;11.636;2022-07-29T12:33:42;26.30;34.90
2767;DHT22;1391;46.742;11.636;2022-07-29T12:36:21;26.40;32.40
2767;DHT22;1391;46.742;11.636;2022-07-29T12:38:49;26.40;33.20
2767;DHT22;1391;46.742;11.636;2022-07-29T12:41:19;26.30;33.90
2767;DHT22;1391;46.742;11.636;2022-07-29T12:43:52;26.90;32.40
2767;DHT22;1391;46.742;11.636;2022-07-29T12:46:20;26.30;37.60
2767;DHT22;1391;46.742;11.636;2022-07-29T12:48:53;27.10;34.20
2767;DHT22;1391;46.742;11.636;2022-07-29T12:51:30;26.40;33.20
2767;DHT22;1391;46.742;11.636;2022-07-29T12:54:05;27.20;36.80
2767;DHT22;1391;46.742;11.636;2022-07-29T12:56:34;27.10;41.60
2767;DHT22;1391;46.742;11.636;2022-07-29T12:59:12;27.20;34.20
2767;DHT22;1391;46.742;11.636;2022-07-29T13:01:40;26.50;35.50
2767;DHT22;1391;46.742;11.636;2022-07-29T13:04:07;27.00;30.70
2767;DHT22;1391;46.742;11.636;2022-07-29T13:06:37;27.10;33.50
2767;DHT22;1391;46.742;11.636;2022-07-29T13:09:10;27.00;33.70
2767;DHT22;1391;46.742;11.636;2022-07-29T13:11:40;26.40;33.50
2767;DHT22;1391;46.742;11.636;2022-07-29T13:14:10;27.00;34.60
2767;DHT22;1391;46.742;11.636;2022-07-29T13:17:00;27.00;34.10
2767;DHT22;1391;46.742;11.636;2022-07-29T13:19:36;26.90;29.50
2767;DHT22;1391;46.742;11.636;2022-07-29T13:22:06;26.90;32.30
2767;DHT22;1391;46.742;11.636;2022-07-29T13:24:45;27.10;32.90
2767;DHT22;1391;46.742;11.636;2022-07-29T13:27:14;27.10;36.00
2767;DHT22;1391;46.742;11.636;2022-07-29T13:29:41;27.30;32.50
2767;DHT22;1391;46.742;11.636;2022-07-29T13:32:09;27.20;32.00
2767;DHT22;1391;46.742;11.636;2022-07-29T13:34:37;27.10;33.80
2767;DHT22;1391;46.742;11.636;2022-07-29T13:37:05;27.00;33.00
2767;DHT22;1391;46.742;11.636;2022-07-29T13:39:32;27.10;33.10
2767;DHT22;1391;46.742;11.636;2022-07-29T13:42:01;27.10;32.70
2767;DHT22;1391;46.742;11.636;2022-07-29T13:44:28;26.50;30.40
2767;DHT22;1391;46.742;11.636;2022-07-29T13:46:55;27.10;32.70
2767;DHT22;1391;46.742;11.636;2022-07-29T13:49:24;27.10;33.00
2767;DHT22;1391;46.742;11.636;2022-07-29T13:51:51;27.20;34.00
2767;DHT22;1391;46.742;11.636;2022-07-29T13:54:19;27.20;34.60
2767;DHT22;1391;46.742;11.636;2022-07-29T13:56:47;27.10;33.10
2767;DHT22;1391;46.742;11.636;2022-07-29T13:59:16;27.20;35.50
2767;DHT22;1391;46.742;11.636;2022-07-29T14:01:43;27.00;36.50
2767;DHT22;1391;46.742;11.636;2022-07-29T14:04:14;27.20;36.90
2767;DHT22;1391;46.742;11.636;2022-07-29T14:06:42;26.40;34.80
2767;DHT22;1391;46.742;11.636;2022-07-29T14:09:10;27.10;33.30
2767;DHT22;1391;46.742;11.636;2022-07-29T14:11:38;27.10;33.90
2767;DHT22;1391;46.742;11.636;2022-07-29T14:14:05;27.10;34.60
2767;DHT22;1391;46.742;11.636;2022-07-29T14:16:34;27.20;35.40
2767;DHT22;1391;46.742;11.636;2022-07-29T14:19:01;27.10;35.30
2767;DHT22;1391;46.742;11.636;2022-07-29T14:21:29;26.50;35.30
2767;DHT22;1391;46.742;11.636;2022-07-29T14:23:56;27.10;35.80
2767;DHT22;1391;46.742;11.636;2022-07-29T14:26:23;27.20;37.20
2767;DHT22;1391;46.742;11.636;2022-07-29T14:28:50;27.20;36.70
2767;DHT22;1391;46.742;11.636;2022-07-29T14:31:18;27.10;36.80
2767;DHT22;1391;46.742;11.636;2022-07-29T14:33:46;27.30;38.90
2767;DHT22;1391;46.742;11.636;2022-07-29T14:36:15;27.30;37.30
2767;DHT22;1391;46.742;11.636;2022-07-29T14:38:42;27.20;34.50
2767;DHT22;1391;46.742;11.636;2022-07-29T14:41:09;27.20;35.50
2767;DHT22;1391;46.742;11.636;2022-07-29T14:43:37;27.20;36.40
2767;DHT22;1391;46.742;11.636;2022-07-29T14:46:04;27.00;35.50
2767;DHT22;1391;46.742;11.636;2022-07-29T14:48:33;26.40;34.60
2767;DHT22;1391;46.742;11.636;2022-07-29T14:51:02;26.40;36.10
2767;DHT22;1391;46.742;11.636;2022-07-29T14:53:30;27.10;37.30
2767;DHT22;1391;46.742;11.636;2022-07-29T14:55:57;26.40;36.80
2767;DHT22;1391;46.742;11.636;2022-07-29T14:58:24;27.10;35.80
2767;DHT22;1391;46.742;11.636;2022-07-29T15:00:51;27.00;36.60
2767;DHT22;1391;46.742;11.636;2022-07-29T15:03:20;27.10;36.50
2767;DHT22;1391;46.742;11.636;2022-07-29T15:05:50;27.00;36.90
2767;DHT22;1391;46.742;11.636;2022-07-29T15:08:20;26.30;37.90
2767;DHT22;1391;46.742;11.636;2022-07-29T15:10:54;26.30;37.60
2767;DHT22;1391;46.742;11.636;2022-07-29T15:13:25;26.30;37.40
2767;DHT22;1391;46.742;11.636;2022-07-29T15:15:52;26.50;39.30
2767;DHT22;1391;46.742;11.636;2022-07-29T15:18:22;26.50;39.60
2767;DHT22;1391;46.742;11.636;2022-07-29T15:20:50;27.00;40.00
2767;DHT22;1391;46.742;11.636;2022-07-29T15:23:17;26.40;37.90
2767;DHT22;1391;46.742;11.636;2022-07-29T15:25:46;26.30;38.60
2767;DHT22;1391;46.742;11.636;2022-07-29T15:28:13;26.20;38.60
2767;DHT22;1391;46.742;11.636;2022-07-29T15:30:43;26.30;38.30
2767;DHT22;1391;46.742;11.636;2022-07-29T15:33:11;27.00;38.10
2767;DHT22;1391;46.742;11.636;2022-07-29T15:35:38;26.30;38.30
2767;DHT22;1391;46.742;11.636;2022-07-29T15:38:06;26.30;37.90
2767;DHT22;1391;46.742;11.636;2022-07-29T15:40:34;26.40;39.30
2767;DHT22;1391;46.742;11.636;2022-07-29T15:43:04;26.20;40.30
2767;DHT22;1391;46.742;11.636;2022-07-29T15:45:35;26.30;41.40
2767;DHT22;1391;46.742;11.636;2022-07-29T15:48:04;26.10;39.80
2767;DHT22;1391;46.742;11.636;2022-07-29T15:50:34;26.20;42.10
2767;DHT22;1391;46.742;11.636;2022-07-29T15:53:01;26.30;50.20
2767;DHT22;1391;46.742;11.636;2022-07-29T15:55:28;26.10;47.20
2767;DHT22;1391;46.742;11.636;2022-07-29T15:57:58;25.50;44.50
2767;DHT22;1391;46.742;11.636;2022-07-29T16:00:27;25.40;43.40
2767;DHT22;1391;46.742;11.636;2022-07-29T16:02:54;25.10;44.70
2767;DHT22;1391;46.742;11.636;2022-07-29T16:05:22;25.10;45.50
2767;DHT22;1391;46.742;11.636;2022-07-29T16:07:49;24.50;43.10